sensor_id;sensor_type;location;lat;lon;timestamp;pressure;altitude;pressure_sealevel;temperature;humidity
70544;BME280;58097;48.364;-1.224;2023-05-29T00:00:29;99852.22;;;16.20;73.24
70544;BME280;58097;48.364;-1.224;2023-05-29T00:02:55;99845.28;;;16.16;73.89
70544;BME280;58097;48.364;-1.224;2023-05-29T00:05:20;99845.59;;;16.21;72.21
70544;BME280;58097;48.364;-1.224;2023-05-29T00:07:45;99845.38;;;16.23;72.24
70544;BME280;58097;48.364;-1.224;2023-05-29T00:10:11;99839.50;;;16.18;73.20
70544;BME280;58097;48.364;-1.224;2023-05-29T00:12:38;99842.91;;;16.13;72.92
70544;BME280;58097;48.364;-1.224;2023-05-29T00:15:04;99847.16;;;16.09;73.49
70544;BME280;58097;48.364;-1.224;2023-05-29T00:17:30;99848.41;;;16.06;73.64
70544;BME280;58097;48.364;-1.224;2023-05-29T00:19:59;99848.94;;;15.95;74.76
70544;BME280;58097;48.364;-1.224;2023-05-29T00:22:26;99844.91;;;15.98;74.08
70544;BME280;58097;48.364;-1.224;2023-05-29T00:24:52;99841.25;;;15.97;73.89
70544;BME280;58097;48.364;-1.224;2023-05-29T00:27:18;99847.22;;;15.94;73.58
70544;BME280;58097;48.364;-1.224;2023-05-29T00:29:43;99849.16;;;15.94;74.09
70544;BME280;58097;48.364;-1.224;2023-05-29T00:32:09;99847.13;;;15.88;74.57
70544;BME280;58097;48.364;-1.224;2023-05-29T00:34:35;99843.56;;;15.94;73.31
70544;BME280;58097;48.364;-1.224;2023-05-29T00:37:00;99841.34;;;15.89;74.25
70544;BME280;58097;48.364;-1.224;2023-05-29T00:39:26;99849.91;;;15.88;74.06
70544;BME280;58097;48.364;-1.224;2023-05-29T00:41:52;99847.13;;;15.88;74.15
70544;BME280;58097;48.364;-1.224;2023-05-29T00:44:21;99844.94;;;15.83;74.44
70544;BME280;58097;48.364;-1.224;2023-05-29T00:46:47;99842.16;;;15.83;74.27
70544;BME280;58097;48.364;-1.224;2023-05-29T00:49:14;99839.50;;;15.75;74.88
70544;BME280;58097;48.364;-1.224;2023-05-29T00:51:40;99838.22;;;15.77;73.59
70544;BME280;58097;48.364;-1.224;2023-05-29T00:54:07;99821.25;;;15.72;74.30
70544;BME280;58097;48.364;-1.224;2023-05-29T00:56:34;99834.78;;;15.75;74.28
70544;BME280;58097;48.364;-1.224;2023-05-29T00:59:00;99833.44;;;15.71;74.12
70544;BME280;58097;48.364;-1.224;2023-05-29T01:01:26;99830.00;;;15.69;74.05
70544;BME280;58097;48.364;-1.224;2023-05-29T01:03:55;99828.09;;;15.70;74.04
70544;BME280;58097;48.364;-1.224;2023-05-29T01:06:21;99827.41;;;15.68;73.99
70544;BME280;58097;48.364;-1.224;2023-05-29T01:08:46;99836.38;;;15.63;74.54
70544;BME280;58097;48.364;-1.224;2023-05-29T01:11:38;99833.78;;;15.62;74.77
70544;BME280;58097;48.364;-1.224;2023-05-29T01:14:08;99840.94;;;15.56;74.47
70544;BME280;58097;48.364;-1.224;2023-05-29T01:16:42;99836.06;;;15.58;74.20
70544;BME280;58097;48.364;-1.224;2023-05-29T01:24:49;99827.16;;;15.63;73.84
70544;BME280;58097;48.364;-1.224;2023-05-29T01:27:21;99837.47;;;15.54;74.46
70544;BME280;58097;48.364;-1.224;2023-05-29T01:29:51;99831.03;;;15.54;74.02
70544;BME280;58097;48.364;-1.224;2023-05-29T01:32:17;99840.84;;;15.49;74.96
70544;BME280;58097;48.364;-1.224;2023-05-29T01:34:43;99838.28;;;15.48;74.63
70544;BME280;58097;48.364;-1.224;2023-05-29T01:37:08;99837.22;;;15.49;74.31
70544;BME280;58097;48.364;-1.224;2023-05-29T01:39:34;99836.06;;;15.43;74.29
70544;BME280;58097;48.364;-1.224;2023-05-29T01:42:00;99841.25;;;15.46;73.95
70544;BME280;58097;48.364;-1.224;2023-05-29T01:44:26;99838.84;;;15.43;73.98
70544;BME280;58097;48.364;-1.224;2023-05-29T01:46:53;99835.59;;;15.40;74.08
70544;BME280;58097;48.364;-1.224;2023-05-29T01:49:20;99842.22;;;15.39;73.70
70544;BME280;58097;48.364;-1.224;2023-05-29T01:51:46;99841.16;;;15.40;73.63
70544;BME280;58097;48.364;-1.224;2023-05-29T01:54:11;99841.16;;;15.40;73.62
70544;BME280;58097;48.364;-1.224;2023-05-29T01:56:37;99843.28;;;15.38;73.08
70544;BME280;58097;48.364;-1.224;2023-05-29T01:59:03;99846.47;;;15.35;73.27
70544;BME280;58097;48.364;-1.224;2023-05-29T02:01:29;99848.38;;;15.34;73.40
70544;BME280;58097;48.364;-1.224;2023-05-29T02:03:54;99845.59;;;15.34;72.82
70544;BME280;58097;48.364;-1.224;2023-05-29T02:06:20;99850.97;;;15.36;72.98
70544;BME280;58097;48.364;-1.224;2023-05-29T02:08:46;99847.22;;;15.29;72.94
70544;BME280;58097;48.364;-1.224;2023-05-29T02:11:11;99846.06;;;15.23;73.00
70544;BME280;58097;48.364;-1.224;2023-05-29T02:13:37;99842.69;;;15.28;72.10
70544;BME280;58097;48.364;-1.224;2023-05-29T02:16:02;99839.44;;;15.24;72.44
70544;BME280;58097;48.364;-1.224;2023-05-29T02:18:28;99843.56;;;15.28;71.59
70544;BME280;58097;48.364;-1.224;2023-05-29T02:20:53;99852.97;;;15.27;71.13
70544;BME280;58097;48.364;-1.224;2023-05-29T02:23:18;99863.16;;;15.20;71.66
70544;BME280;58097;48.364;-1.224;2023-05-29T02:25:44;99860.09;;;15.15;71.49
70544;BME280;58097;48.364;-1.224;2023-05-29T02:28:10;99860.56;;;15.18;71.03
70544;BME280;58097;48.364;-1.224;2023-05-29T02:30:35;99864.22;;;15.04;72.36
70544;BME280;58097;48.364;-1.224;2023-05-29T02:33:01;99868.41;;;15.00;71.79
70544;BME280;58097;48.364;-1.224;2023-05-29T02:35:26;99866.22;;;14.96;72.44
70544;BME280;58097;48.364;-1.224;2023-05-29T02:37:52;99876.00;;;14.92;72.63
70544;BME280;58097;48.364;-1.224;2023-05-29T02:40:18;99868.34;;;14.94;71.88
70544;BME280;58097;48.364;-1.224;2023-05-29T02:42:44;99879.94;;;14.82;72.96
70544;BME280;58097;48.364;-1.224;2023-05-29T02:45:10;99867.38;;;14.86;72.73
70544;BME280;58097;48.364;-1.224;2023-05-29T02:47:35;99864.41;;;14.88;72.33
70544;BME280;58097;48.364;-1.224;2023-05-29T02:50:02;99870.34;;;14.85;72.14
70544;BME280;58097;48.364;-1.224;2023-05-29T02:52:27;99859.31;;;14.77;72.89
70544;BME280;58097;48.364;-1.224;2023-05-29T02:54:53;99861.09;;;14.70;72.85
70544;BME280;58097;48.364;-1.224;2023-05-29T02:57:19;99861.09;;;14.70;73.18
70544;BME280;58097;48.364;-1.224;2023-05-29T02:59:45;99854.56;;;14.63;73.20
70544;BME280;58097;48.364;-1.224;2023-05-29T03:02:11;99867.03;;;14.67;72.80
70544;BME280;58097;48.364;-1.224;2023-05-29T03:04:36;99860.13;;;14.63;73.02
70544;BME280;58097;48.364;-1.224;2023-05-29T03:07:02;99863.78;;;14.63;72.13
70544;BME280;58097;48.364;-1.224;2023-05-29T03:09:27;99859.56;;;14.67;72.67
70544;BME280;58097;48.364;-1.224;2023-05-29T03:11:52;99854.84;;;14.68;72.25
70544;BME280;58097;48.364;-1.224;2023-05-29T03:14:18;99847.00;;;14.71;71.81
70544;BME280;58097;48.364;-1.224;2023-05-29T03:16:44;99856.19;;;14.72;71.81
70544;BME280;58097;48.364;-1.224;2023-05-29T03:19:09;99862.28;;;14.75;71.86
70544;BME280;58097;48.364;-1.224;2023-05-29T03:21:35;99854.47;;;14.71;71.78
70544;BME280;58097;48.364;-1.224;2023-05-29T03:24:01;99854.81;;;14.76;71.28
70544;BME280;58097;48.364;-1.224;2023-05-29T03:26:28;99849.78;;;14.71;71.94
70544;BME280;58097;48.364;-1.224;2023-05-29T03:28:53;99847.84;;;14.72;71.42
70544;BME280;58097;48.364;-1.224;2023-05-29T03:31:19;99847.38;;;14.68;71.66
70544;BME280;58097;48.364;-1.224;2023-05-29T03:33:44;99848.72;;;14.57;72.62
70544;BME280;58097;48.364;-1.224;2023-05-29T03:36:10;99851.50;;;14.57;72.22
70544;BME280;58097;48.364;-1.224;2023-05-29T03:38:36;99844.31;;;14.40;73.11
70544;BME280;58097;48.364;-1.224;2023-05-29T03:41:01;99852.44;;;14.27;73.47
70544;BME280;58097;48.364;-1.224;2023-05-29T03:43:26;99841.38;;;14.19;74.10
70544;BME280;58097;48.364;-1.224;2023-05-29T03:45:52;99843.31;;;14.18;74.11
70544;BME280;58097;48.364;-1.224;2023-05-29T03:48:17;99841.72;;;14.16;73.90
70544;BME280;58097;48.364;-1.224;2023-05-29T03:50:42;99846.13;;;14.10;74.30
70544;BME280;58097;48.364;-1.224;2023-05-29T03:53:08;99847.00;;;14.11;74.26
70544;BME280;58097;48.364;-1.224;2023-05-29T03:55:33;99855.22;;;14.04;74.69
70544;BME280;58097;48.364;-1.224;2023-05-29T03:57:58;99853.00;;;14.00;74.92
70544;BME280;58097;48.364;-1.224;2023-05-29T04:00:24;99860.00;;;13.87;75.68
70544;BME280;58097;48.364;-1.224;2023-05-29T04:02:49;99853.94;;;13.84;75.45
70544;BME280;58097;48.364;-1.224;2023-05-29T04:05:14;99855.69;;;13.85;75.58
70544;BME280;58097;48.364;-1.224;2023-05-29T04:07:41;99862.09;;;13.85;75.59
70544;BME280;58097;48.364;-1.224;2023-05-29T04:10:06;99866.13;;;13.83;76.13
70544;BME280;58097;48.364;-1.224;2023-05-29T04:12:32;99862.28;;;13.84;75.64
70544;BME280;58097;48.364;-1.224;2023-05-29T04:14:58;99860.19;;;13.86;74.91
70544;BME280;58097;48.364;-1.224;2023-05-29T04:17:24;99863.72;;;13.80;75.89
70544;BME280;58097;48.364;-1.224;2023-05-29T04:19:49;99861.13;;;13.78;75.79
70544;BME280;58097;48.364;-1.224;2023-05-29T04:22:15;99861.06;;;13.86;75.33
70544;BME280;58097;48.364;-1.224;2023-05-29T04:24:40;99861.78;;;13.80;75.62
70544;BME280;58097;48.364;-1.224;2023-05-29T04:27:10;99861.97;;;13.79;76.01
70544;BME280;58097;48.364;-1.224;2023-05-29T04:29:41;99857.28;;;13.79;75.38
70544;BME280;58097;48.364;-1.224;2023-05-29T04:32:10;99855.63;;;13.70;75.96
70544;BME280;58097;48.364;-1.224;2023-05-29T04:34:37;99867.41;;;13.72;76.05
70544;BME280;58097;48.364;-1.224;2023-05-29T04:37:04;99867.09;;;13.67;76.20
70544;BME280;58097;48.364;-1.224;2023-05-29T04:39:29;99867.59;;;13.71;75.41
70544;BME280;58097;48.364;-1.224;2023-05-29T04:41:55;99870.75;;;13.68;76.23
70544;BME280;58097;48.364;-1.224;2023-05-29T04:44:24;99875.09;;;13.62;76.73
70544;BME280;58097;48.364;-1.224;2023-05-29T04:46:51;99865.91;;;13.61;76.50
70544;BME280;58097;48.364;-1.224;2023-05-29T04:49:17;99878.94;;;13.61;76.40
70544;BME280;58097;48.364;-1.224;2023-05-29T04:51:43;99884.50;;;13.61;76.49
70544;BME280;58097;48.364;-1.224;2023-05-29T04:54:10;99884.69;;;13.59;76.56
70544;BME280;58097;48.364;-1.224;2023-05-29T04:56:36;99884.81;;;13.58;76.29
70544;BME280;58097;48.364;-1.224;2023-05-29T04:59:02;99894.19;;;13.57;76.76
70544;BME280;58097;48.364;-1.224;2023-05-29T05:01:27;99896.28;;;13.55;76.93
70544;BME280;58097;48.364;-1.224;2023-05-29T05:03:54;99895.59;;;13.61;76.24
70544;BME280;58097;48.364;-1.224;2023-05-29T05:06:21;99901.16;;;13.61;76.61
70544;BME280;58097;48.364;-1.224;2023-05-29T05:08:47;99909.28;;;13.62;76.03
70544;BME280;58097;48.364;-1.224;2023-05-29T05:11:12;99904.25;;;13.58;76.24
70544;BME280;58097;48.364;-1.224;2023-05-29T05:13:39;99907.38;;;13.63;76.18
70544;BME280;58097;48.364;-1.224;2023-05-29T05:16:04;99908.75;;;13.67;75.56
70544;BME280;58097;48.364;-1.224;2023-05-29T05:18:30;99913.63;;;13.65;75.80
70544;BME280;58097;48.364;-1.224;2023-05-29T05:20:55;99910.28;;;13.70;75.97
70544;BME280;58097;48.364;-1.224;2023-05-29T05:23:20;99917.41;;;13.72;75.48
70544;BME280;58097;48.364;-1.224;2023-05-29T05:25:46;99913.69;;;13.80;74.80
70544;BME280;58097;48.364;-1.224;2023-05-29T05:28:11;99918.88;;;13.83;75.38
70544;BME280;58097;48.364;-1.224;2023-05-29T05:30:38;99919.06;;;13.81;75.31
70544;BME280;58097;48.364;-1.224;2023-05-29T05:33:03;99913.34;;;13.83;75.07
70544;BME280;58097;48.364;-1.224;2023-05-29T05:35:29;99918.75;;;13.76;75.40
70544;BME280;58097;48.364;-1.224;2023-05-29T05:37:54;99923.25;;;13.77;75.46
70544;BME280;58097;48.364;-1.224;2023-05-29T05:40:23;99925.00;;;13.78;75.30
70544;BME280;58097;48.364;-1.224;2023-05-29T05:42:48;99920.63;;;13.84;74.75
70544;BME280;58097;48.364;-1.224;2023-05-29T05:45:13;99926.53;;;13.89;74.90
70544;BME280;58097;48.364;-1.224;2023-05-29T05:47:39;99926.28;;;13.99;74.64
70544;BME280;58097;48.364;-1.224;2023-05-29T05:50:04;99925.59;;;13.97;74.61
70544;BME280;58097;48.364;-1.224;2023-05-29T05:52:30;99927.38;;;13.89;74.84
70544;BME280;58097;48.364;-1.224;2023-05-29T05:54:57;99930.16;;;13.89;74.72
70544;BME280;58097;48.364;-1.224;2023-05-29T05:57:23;99934.13;;;13.95;74.95
70544;BME280;58097;48.364;-1.224;2023-05-29T05:59:48;99933.56;;;14.00;74.78
70544;BME280;58097;48.364;-1.224;2023-05-29T06:02:14;99939.44;;;14.05;74.88
70544;BME280;58097;48.364;-1.224;2023-05-29T06:04:40;99938.56;;;14.04;74.54
70544;BME280;58097;48.364;-1.224;2023-05-29T06:07:05;99936.78;;;14.11;74.37
70544;BME280;58097;48.364;-1.224;2023-05-29T06:09:31;99941.63;;;14.17;74.09
70544;BME280;58097;48.364;-1.224;2023-05-29T06:11:56;99945.88;;;14.28;73.87
70544;BME280;58097;48.364;-1.224;2023-05-29T06:14:23;99946.44;;;14.23;73.70
70544;BME280;58097;48.364;-1.224;2023-05-29T06:16:49;99948.00;;;14.26;73.83
70544;BME280;58097;48.364;-1.224;2023-05-29T06:19:15;99946.94;;;14.27;74.20
70544;BME280;58097;48.364;-1.224;2023-05-29T06:21:41;99947.06;;;14.34;73.82
70544;BME280;58097;48.364;-1.224;2023-05-29T06:24:06;99950.28;;;14.45;74.15
70544;BME280;58097;48.364;-1.224;2023-05-29T06:26:31;99948.16;;;14.55;73.90
70544;BME280;58097;48.364;-1.224;2023-05-29T06:28:57;99952.97;;;14.62;74.16
70544;BME280;58097;48.364;-1.224;2023-05-29T06:31:22;99946.94;;;14.73;73.69
70544;BME280;58097;48.364;-1.224;2023-05-29T06:33:48;99952.09;;;14.84;73.49
70544;BME280;58097;48.364;-1.224;2023-05-29T06:36:13;99947.75;;;14.81;73.21
70544;BME280;58097;48.364;-1.224;2023-05-29T06:38:39;99955.66;;;14.93;72.96
70544;BME280;58097;48.364;-1.224;2023-05-29T06:41:05;99960.06;;;15.02;72.91
70544;BME280;58097;48.364;-1.224;2023-05-29T06:43:30;99958.22;;;14.94;72.96
70544;BME280;58097;48.364;-1.224;2023-05-29T06:45:56;99965.81;;;15.00;73.07
70544;BME280;58097;48.364;-1.224;2023-05-29T06:48:21;99978.63;;;15.09;73.47
70544;BME280;58097;48.364;-1.224;2023-05-29T06:50:47;99982.09;;;15.11;72.83
70544;BME280;58097;48.364;-1.224;2023-05-29T06:53:13;99991.22;;;15.20;72.67
70544;BME280;58097;48.364;-1.224;2023-05-29T06:55:38;99982.56;;;15.30;72.36
70544;BME280;58097;48.364;-1.224;2023-05-29T06:58:06;99982.22;;;15.33;72.30
70544;BME280;58097;48.364;-1.224;2023-05-29T07:00:31;99985.09;;;15.39;72.80
70544;BME280;58097;48.364;-1.224;2023-05-29T07:02:57;99985.78;;;15.41;73.27
70544;BME280;58097;48.364;-1.224;2023-05-29T07:05:22;99983.00;;;15.41;72.68
70544;BME280;58097;48.364;-1.224;2023-05-29T07:07:47;99977.72;;;15.46;72.71
70544;BME280;58097;48.364;-1.224;2023-05-29T07:10:13;99979.34;;;15.56;72.97
70544;BME280;58097;48.364;-1.224;2023-05-29T07:12:38;99966.91;;;15.66;72.67
70544;BME280;58097;48.364;-1.224;2023-05-29T07:15:04;99972.44;;;15.81;73.11
70544;BME280;58097;48.364;-1.224;2023-05-29T07:17:29;99973.78;;;16.00;73.18
70544;BME280;58097;48.364;-1.224;2023-05-29T07:19:54;99977.69;;;16.20;72.33
70544;BME280;58097;48.364;-1.224;2023-05-29T07:22:20;99967.88;;;16.46;71.32
70544;BME280;58097;48.364;-1.224;2023-05-29T07:24:46;99965.84;;;16.76;71.92
70544;BME280;58097;48.364;-1.224;2023-05-29T07:27:11;99957.06;;;17.00;71.33
70544;BME280;58097;48.364;-1.224;2023-05-29T07:29:36;99966.31;;;17.28;70.84
70544;BME280;58097;48.364;-1.224;2023-05-29T07:32:02;99962.16;;;17.46;69.44
70544;BME280;58097;48.364;-1.224;2023-05-29T07:34:27;99976.13;;;17.74;70.23
70544;BME280;58097;48.364;-1.224;2023-05-29T07:36:58;99979.53;;;17.69;67.70
70544;BME280;58097;48.364;-1.224;2023-05-29T07:39:25;99982.78;;;17.73;68.18
70544;BME280;58097;48.364;-1.224;2023-05-29T07:41:50;99984.31;;;17.75;67.44
70544;BME280;58097;48.364;-1.224;2023-05-29T07:44:15;99983.88;;;17.78;67.71
70544;BME280;58097;48.364;-1.224;2023-05-29T07:46:41;99976.63;;;17.90;67.91
70544;BME280;58097;48.364;-1.224;2023-05-29T07:49:06;99983.38;;;18.03;68.28
70544;BME280;58097;48.364;-1.224;2023-05-29T07:51:31;99987.50;;;18.20;66.75
70544;BME280;58097;48.364;-1.224;2023-05-29T07:53:57;99990.16;;;18.35;67.59
70544;BME280;58097;48.364;-1.224;2023-05-29T07:56:22;99988.94;;;18.50;66.87
70544;BME280;58097;48.364;-1.224;2023-05-29T07:58:48;99995.16;;;18.46;66.01
70544;BME280;58097;48.364;-1.224;2023-05-29T08:01:13;99999.94;;;18.52;65.81
70544;BME280;58097;48.364;-1.224;2023-05-29T08:03:41;99998.84;;;18.53;66.89
70544;BME280;58097;48.364;-1.224;2023-05-29T08:06:06;99993.75;;;18.76;65.75
70544;BME280;58097;48.364;-1.224;2023-05-29T08:08:32;99994.88;;;18.82;64.50
70544;BME280;58097;48.364;-1.224;2023-05-29T08:10:57;99995.50;;;18.91;65.20
70544;BME280;58097;48.364;-1.224;2023-05-29T08:13:22;99991.88;;;19.10;64.71
70544;BME280;58097;48.364;-1.224;2023-05-29T08:15:48;99990.56;;;19.06;64.33
70544;BME280;58097;48.364;-1.224;2023-05-29T08:18:13;99991.44;;;19.19;63.70
70544;BME280;58097;48.364;-1.224;2023-05-29T08:20:39;100002.88;;;19.11;63.30
70544;BME280;58097;48.364;-1.224;2023-05-29T08:23:05;99993.59;;;19.17;64.64
70544;BME280;58097;48.364;-1.224;2023-05-29T08:25:30;99999.63;;;19.14;63.41
70544;BME280;58097;48.364;-1.224;2023-05-29T08:27:56;99994.25;;;19.13;63.13
70544;BME280;58097;48.364;-1.224;2023-05-29T08:30:21;99992.09;;;19.22;62.86
70544;BME280;58097;48.364;-1.224;2023-05-29T08:32:47;99994.66;;;19.36;63.60
70544;BME280;58097;48.364;-1.224;2023-05-29T08:35:12;100000.06;;;19.44;63.31
70544;BME280;58097;48.364;-1.224;2023-05-29T08:37:38;99998.34;;;19.57;64.44
70544;BME280;58097;48.364;-1.224;2023-05-29T08:40:03;99995.97;;;19.54;63.21
70544;BME280;58097;48.364;-1.224;2023-05-29T08:42:36;99996.59;;;19.62;63.64
70544;BME280;58097;48.364;-1.224;2023-05-29T08:45:06;100003.28;;;19.61;62.85
70544;BME280;58097;48.364;-1.224;2023-05-29T08:47:34;100001.78;;;19.72;62.86
70544;BME280;58097;48.364;-1.224;2023-05-29T08:50:01;100004.59;;;19.59;62.73
70544;BME280;58097;48.364;-1.224;2023-05-29T08:52:29;100015.81;;;19.72;63.11
70544;BME280;58097;48.364;-1.224;2023-05-29T08:54:57;100017.97;;;19.70;61.84
70544;BME280;58097;48.364;-1.224;2023-05-29T08:57:24;100013.84;;;19.79;62.86
70544;BME280;58097;48.364;-1.224;2023-05-29T08:59:51;100016.66;;;19.66;62.51
70544;BME280;58097;48.364;-1.224;2023-05-29T09:02:17;99997.47;;;19.56;62.82
70544;BME280;58097;48.364;-1.224;2023-05-29T09:04:43;99997.25;;;19.51;61.60
70544;BME280;58097;48.364;-1.224;2023-05-29T09:07:14;100005.22;;;19.61;62.39
70544;BME280;58097;48.364;-1.224;2023-05-29T09:09:39;100006.97;;;19.62;62.00
70544;BME280;58097;48.364;-1.224;2023-05-29T09:12:05;100011.25;;;19.31;62.33
70544;BME280;58097;48.364;-1.224;2023-05-29T09:14:34;100003.50;;;19.27;62.92
70544;BME280;58097;48.364;-1.224;2023-05-29T09:17:00;100014.94;;;19.38;63.23
70544;BME280;58097;48.364;-1.224;2023-05-29T09:19:26;100006.75;;;19.57;64.19
70544;BME280;58097;48.364;-1.224;2023-05-29T09:21:52;100004.13;;;19.82;63.35
70544;BME280;58097;48.364;-1.224;2023-05-29T09:24:25;100013.81;;;19.92;62.32
70544;BME280;58097;48.364;-1.224;2023-05-29T09:26:52;100014.88;;;20.04;62.46
70544;BME280;58097;48.364;-1.224;2023-05-29T09:29:18;100010.16;;;19.98;62.14
70544;BME280;58097;48.364;-1.224;2023-05-29T09:31:47;100016.09;;;20.22;62.01
70544;BME280;58097;48.364;-1.224;2023-05-29T09:34:13;100017.13;;;20.34;62.48
70544;BME280;58097;48.364;-1.224;2023-05-29T09:36:38;100021.22;;;20.45;62.61
70544;BME280;58097;48.364;-1.224;2023-05-29T09:39:03;100017.31;;;20.46;62.55
70544;BME280;58097;48.364;-1.224;2023-05-29T09:41:29;100027.69;;;20.38;61.90
70544;BME280;58097;48.364;-1.224;2023-05-29T09:43:56;100030.72;;;20.44;61.41
70544;BME280;58097;48.364;-1.224;2023-05-29T09:46:26;100029.22;;;20.41;62.60
70544;BME280;58097;48.364;-1.224;2023-05-29T09:48:51;100029.13;;;20.61;62.24
70544;BME280;58097;48.364;-1.224;2023-05-29T09:51:22;100033.19;;;20.71;62.46
70544;BME280;58097;48.364;-1.224;2023-05-29T09:53:48;100038.72;;;20.85;61.13
70544;BME280;58097;48.364;-1.224;2023-05-29T09:56:16;100038.47;;;20.93;60.53
70544;BME280;58097;48.364;-1.224;2023-05-29T09:58:43;100029.28;;;21.04;60.64
70544;BME280;58097;48.364;-1.224;2023-05-29T10:01:15;100028.09;;;20.93;60.33
70544;BME280;58097;48.364;-1.224;2023-05-29T10:03:43;100018.63;;;21.19;60.49
70544;BME280;58097;48.364;-1.224;2023-05-29T10:06:11;100031.16;;;21.17;61.29
70544;BME280;58097;48.364;-1.224;2023-05-29T10:08:45;100023.06;;;21.33;60.73
70544;BME280;58097;48.364;-1.224;2023-05-29T10:11:18;100024.72;;;21.66;60.32
70544;BME280;58097;48.364;-1.224;2023-05-29T10:13:48;100018.66;;;21.87;59.34
70544;BME280;58097;48.364;-1.224;2023-05-29T10:16:15;100019.81;;;22.23;59.81
70544;BME280;58097;48.364;-1.224;2023-05-29T10:18:49;100008.25;;;22.13;56.64
70544;BME280;58097;48.364;-1.224;2023-05-29T10:21:16;100016.75;;;22.24;59.30
70544;BME280;58097;48.364;-1.224;2023-05-29T10:23:46;100008.03;;;22.33;57.23
70544;BME280;58097;48.364;-1.224;2023-05-29T10:26:15;100007.69;;;22.22;56.57
70544;BME280;58097;48.364;-1.224;2023-05-29T10:28:55;100004.03;;;22.40;56.65
70544;BME280;58097;48.364;-1.224;2023-05-29T10:32:27;100012.13;;;22.48;55.59
70544;BME280;58097;48.364;-1.224;2023-05-29T10:37:32;100011.03;;;22.86;57.25
70544;BME280;58097;48.364;-1.224;2023-05-29T10:40:08;100011.31;;;23.08;56.81
70544;BME280;58097;48.364;-1.224;2023-05-29T10:42:47;100008.81;;;23.30;54.56
70544;BME280;58097;48.364;-1.224;2023-05-29T10:50:36;100016.94;;;22.78;54.84
70544;BME280;58097;48.364;-1.224;2023-05-29T10:53:02;100017.97;;;22.83;54.44
70544;BME280;58097;48.364;-1.224;2023-05-29T10:55:34;100015.06;;;22.90;53.67
70544;BME280;58097;48.364;-1.224;2023-05-29T10:58:18;100012.97;;;23.15;55.08
70544;BME280;58097;48.364;-1.224;2023-05-29T11:00:45;100022.22;;;23.46;56.17
70544;BME280;58097;48.364;-1.224;2023-05-29T11:03:25;100020.03;;;23.60;54.28
70544;BME280;58097;48.364;-1.224;2023-05-29T11:05:58;100027.91;;;23.58;51.38
70544;BME280;58097;48.364;-1.224;2023-05-29T11:08:54;100020.06;;;23.71;53.35
70544;BME280;58097;48.364;-1.224;2023-05-29T11:11:30;100020.56;;;23.80;54.62
70544;BME280;58097;48.364;-1.224;2023-05-29T11:14:04;100015.50;;;23.94;51.79
70544;BME280;58097;48.364;-1.224;2023-05-29T11:19:03;100012.59;;;24.00;53.21
70544;BME280;58097;48.364;-1.224;2023-05-29T11:24:03;100014.13;;;24.20;53.93
70544;BME280;58097;48.364;-1.224;2023-05-29T11:26:31;100013.66;;;24.34;52.44
70544;BME280;58097;48.364;-1.224;2023-05-29T11:29:02;100017.56;;;24.22;52.55
70544;BME280;58097;48.364;-1.224;2023-05-29T11:31:29;100019.69;;;24.15;50.97
70544;BME280;58097;48.364;-1.224;2023-05-29T11:33:59;100010.84;;;24.11;51.97
70544;BME280;58097;48.364;-1.224;2023-05-29T11:36:25;100019.19;;;24.18;52.16
70544;BME280;58097;48.364;-1.224;2023-05-29T11:38:51;100015.84;;;24.21;52.02
70544;BME280;58097;48.364;-1.224;2023-05-29T11:41:17;100019.22;;;24.29;52.06
70544;BME280;58097;48.364;-1.224;2023-05-29T11:43:43;100013.28;;;24.43;51.72
70544;BME280;58097;48.364;-1.224;2023-05-29T11:46:18;100017.56;;;24.45;52.08
70544;BME280;58097;48.364;-1.224;2023-05-29T11:48:46;100012.69;;;24.69;52.62
70544;BME280;58097;48.364;-1.224;2023-05-29T11:51:11;100013.59;;;24.86;52.91
70544;BME280;58097;48.364;-1.224;2023-05-29T11:53:40;100009.06;;;24.85;52.18
70544;BME280;58097;48.364;-1.224;2023-05-29T11:56:07;100006.72;;;24.94;53.36
70544;BME280;58097;48.364;-1.224;2023-05-29T11:58:33;100009.38;;;24.72;51.08
70544;BME280;58097;48.364;-1.224;2023-05-29T12:01:00;100001.69;;;24.84;52.62
70544;BME280;58097;48.364;-1.224;2023-05-29T12:03:25;100000.47;;;24.80;50.19
70544;BME280;58097;48.364;-1.224;2023-05-29T12:05:51;100002.06;;;24.59;50.16
70544;BME280;58097;48.364;-1.224;2023-05-29T12:08:24;100004.75;;;24.54;50.64
70544;BME280;58097;48.364;-1.224;2023-05-29T12:10:52;100005.25;;;24.63;51.14
70544;BME280;58097;48.364;-1.224;2023-05-29T12:13:21;100006.69;;;24.65;51.07
70544;BME280;58097;48.364;-1.224;2023-05-29T12:15:49;100003.00;;;24.65;49.55
70544;BME280;58097;48.364;-1.224;2023-05-29T12:18:15;100002.09;;;24.76;50.95
70544;BME280;58097;48.364;-1.224;2023-05-29T12:20:40;100002.38;;;25.03;52.38
70544;BME280;58097;48.364;-1.224;2023-05-29T12:23:06;100001.94;;;24.83;49.95
70544;BME280;58097;48.364;-1.224;2023-05-29T12:25:33;100013.56;;;24.98;51.01
70544;BME280;58097;48.364;-1.224;2023-05-29T12:28:02;99999.78;;;25.30;51.01
70544;BME280;58097;48.364;-1.224;2023-05-29T12:30:27;100000.34;;;25.15;49.23
70544;BME280;58097;48.364;-1.224;2023-05-29T12:32:53;100004.13;;;25.21;48.88
70544;BME280;58097;48.364;-1.224;2023-05-29T12:35:21;99999.84;;;25.35;49.32
70544;BME280;58097;48.364;-1.224;2023-05-29T12:40:22;100002.78;;;25.23;50.53
70544;BME280;58097;48.364;-1.224;2023-05-29T12:42:52;100002.25;;;25.43;51.27
70544;BME280;58097;48.364;-1.224;2023-05-29T12:45:18;100011.22;;;25.69;51.71
70544;BME280;58097;48.364;-1.224;2023-05-29T12:47:51;100013.53;;;25.72;50.97
70544;BME280;58097;48.364;-1.224;2023-05-29T12:52:52;100016.19;;;25.78;48.59
70544;BME280;58097;48.364;-1.224;2023-05-29T12:55:17;100006.34;;;25.81;48.21
70544;BME280;58097;48.364;-1.224;2023-05-29T12:57:43;100000.06;;;25.79;49.97
70544;BME280;58097;48.364;-1.224;2023-05-29T13:00:11;100003.84;;;25.84;49.24
70544;BME280;58097;48.364;-1.224;2023-05-29T13:02:36;100001.34;;;25.88;48.33
70544;BME280;58097;48.364;-1.224;2023-05-29T13:05:02;100003.19;;;25.99;48.73
70544;BME280;58097;48.364;-1.224;2023-05-29T13:07:27;99998.91;;;26.13;49.11
70544;BME280;58097;48.364;-1.224;2023-05-29T13:09:53;99996.72;;;26.20;47.82